sensor_id;sensor_type;location;lat;lon;timestamp;pressure;altitude;pressure_sealevel;temperature;humidity
53932;BME280;39844;52.496;13.482;2023-04-01T00:01:54;99465.13;;;9.58;100.00
53932;BME280;39844;52.496;13.482;2023-04-01T00:04:19;99468.63;;;9.58;100.00
53932;BME280;39844;52.496;13.482;2023-04-01T00:06:45;99472.09;;;9.59;100.00
53932;BME280;39844;52.496;13.482;2023-04-01T00:09:10;99471.19;;;9.60;100.00
53932;BME280;39844;52.496;13.482;2023-04-01T00:11:35;99472.06;;;9.60;100.00
53932;BME280;39844;52.496;13.482;2023-04-01T00:14:00;99468.63;;;9.58;100.00
53932;BME280;39844;52.496;13.482;2023-04-01T00:16:26;99465.09;;;9.59;100.00
53932;BME280;39844;52.496;13.482;2023-04-01T00:18:51;99465.09;;;9.59;100.00
53932;BME280;39844;52.496;13.482;2023-04-01T00:21:17;99463.38;;;9.58;100.00
53932;BME280;39844;52.496;13.482;2023-04-01T00:23:43;99474.75;;;9.57;100.00
53932;BME280;39844;52.496;13.482;2023-04-01T00:26:08;99471.25;;;9.58;100.00
53932;BME280;39844;52.496;13.482;2023-04-01T00:28:34;99472.09;;;9.59;100.00
53932;BME280;39844;52.496;13.482;2023-04-01T00:31:04;99471.16;;;9.61;100.00
53932;BME280;39844;52.496;13.482;2023-04-01T00:33:29;99465.97;;;9.60;100.00
53932;BME280;39844;52.496;13.482;2023-04-01T00:35:55;99466.84;;;9.60;100.00
53932;BME280;39844;52.496;13.482;2023-04-01T00:38:20;99470.34;;;9.59;100.00
53932;BME280;39844;52.496;13.482;2023-04-01T00:40:46;99472.06;;;9.60;100.00
53932;BME280;39844;52.496;13.482;2023-04-01T00:43:17;99466.84;;;9.60;100.00
53932;BME280;39844;52.496;13.482;2023-04-01T00:45:43;99463.31;;;9.61;100.00
53932;BME280;39844;52.496;13.482;2023-04-01T00:48:30;99458.06;;;9.61;100.00
53932;BME280;39844;52.496;13.482;2023-04-01T00:51:05;99465.09;;;9.61;100.00
53932;BME280;39844;52.496;13.482;2023-04-01T00:53:32;99466.78;;;9.62;100.00
53932;BME280;39844;52.496;13.482;2023-04-01T00:56:35;99465.91;;;9.61;100.00
53932;BME280;39844;52.496;13.482;2023-04-01T00:59:04;99473.78;;;9.61;100.00
53932;BME280;39844;52.496;13.482;2023-04-01T01:01:32;99472.03;;;9.62;100.00
53932;BME280;39844;52.496;13.482;2023-04-01T01:03:58;99470.28;;;9.62;100.00
53932;BME280;39844;52.496;13.482;2023-04-01T01:11:38;99465.97;;;9.60;100.00
53932;BME280;39844;52.496;13.482;2023-04-01T01:14:12;99465.09;;;9.59;100.00
53932;BME280;39844;52.496;13.482;2023-04-01T01:16:45;99470.31;;;9.61;100.00
53932;BME280;39844;52.496;13.482;2023-04-01T01:19:40;99466.84;;;9.60;100.00
53932;BME280;39844;52.496;13.482;2023-04-01T01:27:38;99469.41;;;9.63;100.00
53932;BME280;39844;52.496;13.482;2023-04-01T01:30:25;99477.28;;;9.62;100.00
53932;BME280;39844;52.496;13.482;2023-04-01T01:33:08;99472.91;;;9.62;100.00
53932;BME280;39844;52.496;13.482;2023-04-01T01:35:42;99476.38;;;9.63;100.00
53932;BME280;39844;52.496;13.482;2023-04-01T01:41:12;99477.25;;;9.63;100.00
53932;BME280;39844;52.496;13.482;2023-04-01T01:43:41;99474.63;;;9.63;100.00
53932;BME280;39844;52.496;13.482;2023-04-01T01:46:11;99478.97;;;9.64;100.00
53932;BME280;39844;52.496;13.482;2023-04-01T01:48:42;99474.66;;;9.62;100.00
53932;BME280;39844;52.496;13.482;2023-04-01T01:51:08;99472.00;;;9.63;100.00
53932;BME280;39844;52.496;13.482;2023-04-01T01:53:34;99478.97;;;9.64;100.00
53932;BME280;39844;52.496;13.482;2023-04-01T01:56:00;99481.59;;;9.64;100.00
53932;BME280;39844;52.496;13.482;2023-04-01T01:58:32;99485.06;;;9.65;100.00
53932;BME280;39844;52.496;13.482;2023-04-01T02:01:04;99482.44;;;9.65;100.00
53932;BME280;39844;52.496;13.482;2023-04-01T02:03:34;99478.97;;;9.64;100.00
53932;BME280;39844;52.496;13.482;2023-04-01T02:06:02;99483.31;;;9.65;100.00
53932;BME280;39844;52.496;13.482;2023-04-01T02:08:36;99485.94;;;9.65;100.00
53932;BME280;39844;52.496;13.482;2023-04-01T02:11:11;99485.94;;;9.65;100.00
53932;BME280;39844;52.496;13.482;2023-04-01T02:13:44;99486.81;;;9.66;100.00
53932;BME280;39844;52.496;13.482;2023-04-01T02:16:21;99485.03;;;9.66;100.00
53932;BME280;39844;52.496;13.482;2023-04-01T02:18:50;99485.03;;;9.66;100.00
53932;BME280;39844;52.496;13.482;2023-04-01T02:21:17;99485.91;;;9.67;100.00
53932;BME280;39844;52.496;13.482;2023-04-01T02:23:45;99481.56;;;9.66;100.00
53932;BME280;39844;52.496;13.482;2023-04-01T02:26:12;99493.75;;;9.67;100.00
53932;BME280;39844;52.496;13.482;2023-04-01T02:28:40;99488.53;;;9.67;100.00
53932;BME280;39844;52.496;13.482;2023-04-01T02:31:09;99492.00;;;9.67;100.00
53932;BME280;39844;52.496;13.482;2023-04-01T02:33:35;99489.38;;;9.67;100.00
53932;BME280;39844;52.496;13.482;2023-04-01T02:36:02;99490.22;;;9.69;100.00
53932;BME280;39844;52.496;13.482;2023-04-01T02:38:27;99489.34;;;9.69;100.00
53932;BME280;39844;52.496;13.482;2023-04-01T02:41:00;99488.50;;;9.68;100.00
53932;BME280;39844;52.496;13.482;2023-04-01T02:43:26;99491.97;;;9.69;100.00
53932;BME280;39844;52.496;13.482;2023-04-01T02:45:51;99497.19;;;9.69;100.00
53932;BME280;39844;52.496;13.482;2023-04-01T02:48:16;99495.44;;;9.69;100.00
53932;BME280;39844;52.496;13.482;2023-04-01T02:50:42;99500.69;;;9.69;100.00
53932;BME280;39844;52.496;13.482;2023-04-01T02:53:07;99505.06;;;9.70;100.00
53932;BME280;39844;52.496;13.482;2023-04-01T02:55:33;99508.56;;;9.69;100.00
53932;BME280;39844;52.496;13.482;2023-04-01T02:57:59;99506.75;;;9.71;100.00
53932;BME280;39844;52.496;13.482;2023-04-01T03:00:24;99509.41;;;9.70;100.00
53932;BME280;39844;52.496;13.482;2023-04-01T03:02:50;99513.78;;;9.69;100.00
53932;BME280;39844;52.496;13.482;2023-04-01T03:05:15;99511.16;;;9.69;100.00
53932;BME280;39844;52.496;13.482;2023-04-01T03:07:41;99512.00;;;9.71;100.00
53932;BME280;39844;52.496;13.482;2023-04-01T03:10:06;99506.75;;;9.71;100.00
53932;BME280;39844;52.496;13.482;2023-04-01T03:12:32;99507.63;;;9.72;100.00
53932;BME280;39844;52.496;13.482;2023-04-01T03:14:57;99511.16;;;9.71;100.00
53932;BME280;39844;52.496;13.482;2023-04-01T03:17:22;99507.63;;;9.72;100.00
53932;BME280;39844;52.496;13.482;2023-04-01T03:19:48;99504.19;;;9.70;100.00
53932;BME280;39844;52.496;13.482;2023-04-01T03:22:13;99513.78;;;9.69;100.00
53932;BME280;39844;52.496;13.482;2023-04-01T03:24:39;99515.53;;;9.70;100.00
53932;BME280;39844;52.496;13.482;2023-04-01T03:27:04;99515.53;;;9.70;100.00
53932;BME280;39844;52.496;13.482;2023-04-01T03:29:29;99523.38;;;9.70;100.00
53932;BME280;39844;52.496;13.482;2023-04-01T03:31:54;99517.31;;;9.68;100.00
53932;BME280;39844;52.496;13.482;2023-04-01T03:34:20;99524.28;;;9.69;100.00
53932;BME280;39844;52.496;13.482;2023-04-01T03:36:45;99527.75;;;9.70;100.00
53932;BME280;39844;52.496;13.482;2023-04-01T03:39:10;99524.28;;;9.69;100.00
53932;BME280;39844;52.496;13.482;2023-04-01T03:41:36;99523.41;;;9.69;100.00
53932;BME280;39844;52.496;13.482;2023-04-01T03:44:02;99523.41;;;9.69;100.00
53932;BME280;39844;52.496;13.482;2023-04-01T03:46:27;99533.88;;;9.69;100.00
53932;BME280;39844;52.496;13.482;2023-04-01T03:48:52;99533.94;;;9.67;100.00
53932;BME280;39844;52.496;13.482;2023-04-01T03:51:17;99537.44;;;9.66;100.00
53932;BME280;39844;52.496;13.482;2023-04-01T03:53:43;99533.06;;;9.67;100.00
53932;BME280;39844;52.496;13.482;2023-04-01T03:56:09;99534.81;;;9.66;100.00
53932;BME280;39844;52.496;13.482;2023-04-01T03:58:35;99534.81;;;9.66;100.00
53932;BME280;39844;52.496;13.482;2023-04-01T04:01:01;99545.28;;;9.66;100.00
53932;BME280;39844;52.496;13.482;2023-04-01T04:03:26;99544.41;;;9.67;100.00
53932;BME280;39844;52.496;13.482;2023-04-01T04:05:51;99548.75;;;9.68;100.00
53932;BME280;39844;52.496;13.482;2023-04-01T04:08:17;99551.41;;;9.67;100.00
53932;BME280;39844;52.496;13.482;2023-04-01T04:10:42;99548.75;;;9.68;100.00
53932;BME280;39844;52.496;13.482;2023-04-01T04:13:07;99549.59;;;9.69;100.00
53932;BME280;39844;52.496;13.482;2023-04-01T04:15:33;99560.94;;;9.69;100.00
53932;BME280;39844;52.496;13.482;2023-04-01T04:17:58;99555.75;;;9.68;100.00
53932;BME280;39844;52.496;13.482;2023-04-01T04:20:23;99558.38;;;9.68;100.00
53932;BME280;39844;52.496;13.482;2023-04-01T04:22:48;99559.25;;;9.68;100.00
53932;BME280;39844;52.496;13.482;2023-04-01T04:25:14;99560.09;;;9.69;100.00
53932;BME280;39844;52.496;13.482;2023-04-01T04:27:39;99567.09;;;9.68;100.00
53932;BME280;39844;52.496;13.482;2023-04-01T04:30:06;99565.31;;;9.69;100.00
53932;BME280;39844;52.496;13.482;2023-04-01T04:32:31;99566.19;;;9.69;100.00
53932;BME280;39844;52.496;13.482;2023-04-01T04:34:57;99561.81;;;9.70;100.00
53932;BME280;39844;52.496;13.482;2023-04-01T04:37:22;99567.88;;;9.72;100.00
53932;BME280;39844;52.496;13.482;2023-04-01T04:39:47;99566.13;;;9.72;100.00
53932;BME280;39844;52.496;13.482;2023-04-01T04:42:13;99573.13;;;9.72;100.00
53932;BME280;39844;52.496;13.482;2023-04-01T04:44:39;99569.63;;;9.71;100.00
53932;BME280;39844;52.496;13.482;2023-04-01T04:47:06;99566.13;;;9.72;100.00
53932;BME280;39844;52.496;13.482;2023-04-01T04:49:32;99574.03;;;9.71;100.00
53932;BME280;39844;52.496;13.482;2023-04-01T04:51:57;99574.88;;;9.71;100.00
53932;BME280;39844;52.496;13.482;2023-04-01T04:54:22;99573.13;;;9.73;100.00
53932;BME280;39844;52.496;13.482;2023-04-01T04:56:48;99578.34;;;9.73;100.00
53932;BME280;39844;52.496;13.482;2023-04-01T04:59:15;99576.56;;;9.74;100.00
53932;BME280;39844;52.496;13.482;2023-04-01T05:01:41;99579.19;;;9.74;100.00
53932;BME280;39844;52.496;13.482;2023-04-01T05:04:06;99580.06;;;9.74;100.00
53932;BME280;39844;52.496;13.482;2023-04-01T05:06:31;99580.94;;;9.75;100.00
53932;BME280;39844;52.496;13.482;2023-04-01T05:08:57;99581.81;;;9.75;100.00
53932;BME280;39844;52.496;13.482;2023-04-01T05:11:22;99585.31;;;9.74;100.00
53932;BME280;39844;52.496;13.482;2023-04-01T05:13:48;99588.78;;;9.76;100.00
53932;BME280;39844;52.496;13.482;2023-04-01T05:16:16;99582.63;;;9.77;100.00
53932;BME280;39844;52.496;13.482;2023-04-01T05:18:41;99588.75;;;9.78;100.00
53932;BME280;39844;52.496;13.482;2023-04-01T05:21:08;99587.00;;;9.78;100.00
53932;BME280;39844;52.496;13.482;2023-04-01T05:23:34;99585.25;;;9.79;100.00
53932;BME280;39844;52.496;13.482;2023-04-01T05:26:06;99599.19;;;9.79;100.00
53932;BME280;39844;52.496;13.482;2023-04-01T05:28:31;99588.69;;;9.79;100.00
53932;BME280;39844;52.496;13.482;2023-04-01T05:30:58;99602.66;;;9.81;100.00
53932;BME280;39844;52.496;13.482;2023-04-01T05:33:24;99587.78;;;9.82;100.00
53932;BME280;39844;52.496;13.482;2023-04-01T05:35:49;99596.50;;;9.84;100.00
53932;BME280;39844;52.496;13.482;2023-04-01T05:38:15;99597.34;;;9.84;100.00
53932;BME280;39844;52.496;13.482;2023-04-01T05:40:40;99595.59;;;9.86;100.00
53932;BME280;39844;52.496;13.482;2023-04-01T05:43:05;99602.53;;;9.87;100.00
53932;BME280;39844;52.496;13.482;2023-04-01T05:45:30;99599.91;;;9.89;100.00
53932;BME280;39844;52.496;13.482;2023-04-01T05:47:56;99602.53;;;9.89;100.00
53932;BME280;39844;52.496;13.482;2023-04-01T05:50:21;99612.97;;;9.90;100.00
53932;BME280;39844;52.496;13.482;2023-04-01T05:52:47;99608.59;;;9.91;100.00
53932;BME280;39844;52.496;13.482;2023-04-01T05:55:12;99612.00;;;9.94;100.00
53932;BME280;39844;52.496;13.482;2023-04-01T05:57:37;99612.00;;;9.94;100.00
53932;BME280;39844;52.496;13.482;2023-04-01T06:00:03;99623.34;;;9.96;100.00
53932;BME280;39844;52.496;13.482;2023-04-01T06:02:29;99616.31;;;9.98;100.00
53932;BME280;39844;52.496;13.482;2023-04-01T06:05:03;99624.94;;;10.02;100.00
53932;BME280;39844;52.496;13.482;2023-04-01T06:07:36;99623.19;;;10.04;100.00
53932;BME280;39844;52.496;13.482;2023-04-01T06:10:01;99624.88;;;10.06;100.00
53932;BME280;39844;52.496;13.482;2023-04-01T06:23:44;99638.75;;;10.13;100.00
53932;BME280;39844;52.496;13.482;2023-04-01T06:28:53;99636.97;;;10.15;100.00
53932;BME280;39844;52.496;13.482;2023-04-01T06:34:42;99642.16;;;10.18;100.00
53932;BME280;39844;52.496;13.482;2023-04-01T06:37:14;99646.53;;;10.19;100.00
53932;BME280;39844;52.496;13.482;2023-04-01T06:54:06;99657.75;;;10.26;100.00
53932;BME280;39844;52.496;13.482;2023-04-01T06:56:36;99661.25;;;10.25;100.00
53932;BME280;39844;52.496;13.482;2023-04-01T06:59:19;99665.66;;;10.24;100.00
53932;BME280;39844;52.496;13.482;2023-04-01T07:01:50;99662.97;;;10.26;100.00
53932;BME280;39844;52.496;13.482;2023-04-01T07:04:27;99661.22;;;10.26;100.00
53932;BME280;39844;52.496;13.482;2023-04-01T07:09:43;99665.34;;;10.38;100.00
53932;BME280;39844;52.496;13.482;2023-04-01T07:12:21;99666.16;;;10.41;100.00
53932;BME280;39844;52.496;13.482;2023-04-01T07:14:51;99672.25;;;10.43;100.00
53932;BME280;39844;52.496;13.482;2023-04-01T07:17:28;99673.06;;;10.47;100.00
53932;BME280;39844;52.496;13.482;2023-04-01T07:20:15;99668.63;;;10.49;100.00
53932;BME280;39844;52.496;13.482;2023-04-01T07:22:51;99669.53;;;10.48;100.00
53932;BME280;39844;52.496;13.482;2023-04-01T07:25:34;99680.78;;;10.53;100.00
53932;BME280;39844;52.496;13.482;2023-04-01T07:28:04;99677.28;;;10.54;100.00
53932;BME280;39844;52.496;13.482;2023-04-01T07:30:44;99679.00;;;10.55;100.00
53932;BME280;39844;52.496;13.482;2023-04-01T07:33:17;99680.72;;;10.56;100.00
53932;BME280;39844;52.496;13.482;2023-04-01T07:38:30;99685.81;;;10.63;100.00
53932;BME280;39844;52.496;13.482;2023-04-01T07:44:00;99687.34;;;10.75;100.00
53932;BME280;39844;52.496;13.482;2023-04-01T07:54:46;99686.25;;;10.85;100.00
53932;BME280;39844;52.496;13.482;2023-04-01T07:57:19;99690.56;;;10.88;100.00
53932;BME280;39844;52.496;13.482;2023-04-01T08:00:01;99698.44;;;10.88;100.00
53932;BME280;39844;52.496;13.482;2023-04-01T08:05:04;99698.38;;;10.89;100.00
53932;BME280;39844;52.496;13.482;2023-04-01T08:07:47;99699.31;;;10.87;100.00
53932;BME280;39844;52.496;13.482;2023-04-01T08:10:35;99701.13;;;10.85;100.00
53932;BME280;39844;52.496;13.482;2023-04-01T08:16:22;99712.41;;;10.88;100.00
53932;BME280;39844;52.496;13.482;2023-04-01T08:18:57;99709.75;;;10.90;100.00
53932;BME280;39844;52.496;13.482;2023-04-01T08:21:35;99716.81;;;10.88;100.00
53932;BME280;39844;52.496;13.482;2023-04-01T08:24:23;99715.44;;;10.70;100.00
53932;BME280;39844;52.496;13.482;2023-04-01T08:26:53;99719.25;;;10.54;100.00
53932;BME280;39844;52.496;13.482;2023-04-01T08:32:10;99733.59;;;10.36;100.00
53932;BME280;39844;52.496;13.482;2023-04-01T08:34:38;99738.06;;;10.30;100.00
53932;BME280;39844;52.496;13.482;2023-04-01T08:37:08;99737.38;;;10.22;100.00
53932;BME280;39844;52.496;13.482;2023-04-01T08:39:48;99745.38;;;10.12;100.00
53932;BME280;39844;52.496;13.482;2023-04-01T08:45:21;99742.09;;;10.01;100.00
53932;BME280;39844;52.496;13.482;2023-04-01T08:59:04;99753.50;;;9.97;100.00
53932;BME280;39844;52.496;13.482;2023-04-01T09:01:56;99746.53;;;9.96;100.00
53932;BME280;39844;52.496;13.482;2023-04-01T09:09:45;99754.94;;;10.17;100.00
53932;BME280;39844;52.496;13.482;2023-04-01T09:32:25;99790.97;;;10.53;100.00
53932;BME280;39844;52.496;13.482;2023-04-01T09:40:17;99806.13;;;10.39;100.00
53932;BME280;39844;52.496;13.482;2023-04-01T09:46:14;99799.41;;;10.24;100.00
53932;BME280;39844;52.496;13.482;2023-04-01T09:51:39;99811.69;;;10.21;100.00
53932;BME280;39844;52.496;13.482;2023-04-01T10:06:13;99821.16;;;10.29;100.00
53932;BME280;39844;52.496;13.482;2023-04-01T10:23:10;99836.38;;;10.04;100.00
53932;BME280;39844;52.496;13.482;2023-04-01T10:28:47;99835.75;;;9.90;100.00
53932;BME280;39844;52.496;13.482;2023-04-01T10:34:30;99841.03;;;9.87;100.00
53932;BME280;39844;52.496;13.482;2023-04-01T10:42:49;99850.47;;;9.99;100.00
53932;BME280;39844;52.496;13.482;2023-04-01T10:53:40;99847.81;;;10.00;100.00
53932;BME280;39844;52.496;13.482;2023-04-01T11:07:28;99867.13;;;9.96;100.00
53932;BME280;39844;52.496;13.482;2023-04-01T11:26:04;99882.13;;;9.85;100.00
53932;BME280;39844;52.496;13.482;2023-04-01T11:39:17;99896.31;;;9.71;99.37
53932;BME280;39844;52.496;13.482;2023-04-01T11:41:46;99904.22;;;9.68;99.12
53932;BME280;39844;52.496;13.482;2023-04-01T11:44:29;99904.19;;;9.71;100.00
53932;BME280;39844;52.496;13.482;2023-04-01T12:05:58;99943.63;;;9.60;98.46
53932;BME280;39844;52.496;13.482;2023-04-01T12:08:30;99940.09;;;9.61;99.43
53932;BME280;39844;52.496;13.482;2023-04-01T12:11:06;99947.16;;;9.56;99.82
53932;BME280;39844;52.496;13.482;2023-04-01T12:16:30;99950.66;;;9.58;100.00
53932;BME280;39844;52.496;13.482;2023-04-01T12:30:32;99962.75;;;9.68;100.00
53932;BME280;39844;52.496;13.482;2023-04-01T12:55:35;99984.06;;;9.38;100.00
53932;BME280;39844;52.496;13.482;2023-04-01T13:03:43;99998.16;;;9.28;98.86
53932;BME280;39844;52.496;13.482;2023-04-01T13:06:40;99998.16;;;9.25;99.40
53932;BME280;39844;52.496;13.482;2023-04-01T13:09:16;99998.97;;;9.31;100.00
53932;BME280;39844;52.496;13.482;2023-04-01T13:12:09;100000.59;;;9.43;100.00
53932;BME280;39844;52.496;13.482;2023-04-01T13:15:15;100006.75;;;9.36;99.39
53932;BME280;39844;52.496;13.482;2023-04-01T13:17:58;100017.38;;;9.25;98.65
53932;BME280;39844;52.496;13.482;2023-04-01T13:20:32;100009.63;;;9.15;97.60
53932;BME280;39844;52.496;13.482;2023-04-01T13:23:24;100017.56;;;9.03;96.83
53932;BME280;39844;52.496;13.482;2023-04-01T13:32:03;100032.47;;;8.96;99.32
53932;BME280;39844;52.496;13.482;2023-04-01T13:40:23;100034.28;;;8.89;97.08
53932;BME280;39844;52.496;13.482;2023-04-01T13:42:57;100040.38;;;8.88;98.58
53932;BME280;39844;52.496;13.482;2023-04-01T13:45:33;100045.63;;;8.88;98.32
53932;BME280;39844;52.496;13.482;2023-04-01T13:48:27;100040.44;;;8.84;97.51
53932;BME280;39844;52.496;13.482;2023-04-01T13:53:55;100055.28;;;8.77;96.33
53932;BME280;39844;52.496;13.482;2023-04-01T14:07:57;100058.03;;;8.64;98.34
53932;BME280;39844;52.496;13.482;2023-04-01T14:21:20;100089.38;;;8.71;97.26
53932;BME280;39844;52.496;13.482;2023-04-01T14:26:50;100092.84;;;8.70;98.35
53932;BME280;39844;52.496;13.482;2023-04-01T14:32:33;100099.81;;;8.74;96.87
53932;BME280;39844;52.496;13.482;2023-04-01T14:38:17;100107.66;;;8.70;96.71
53932;BME280;39844;52.496;13.482;2023-04-01T14:41:19;100115.53;;;8.65;95.88
53932;BME280;39844;52.496;13.482;2023-04-01T14:49:30;100122.53;;;8.69;96.94
53932;BME280;39844;52.496;13.482;2023-04-01T14:52:04;100126.00;;;8.65;95.53
53932;BME280;39844;52.496;13.482;2023-04-01T14:54:35;100126.91;;;8.63;95.72
53932;BME280;39844;52.496;13.482;2023-04-01T14:57:12;100130.41;;;8.57;95.35
53932;BME280;39844;52.496;13.482;2023-04-01T14:59:47;100137.44;;;8.49;94.15
53932;BME280;39844;52.496;13.482;2023-04-01T15:10:51;100147.09;;;8.29;95.62
53932;BME280;39844;52.496;13.482;2023-04-01T15:16:46;100155.88;;;8.16;94.82
53932;BME280;39844;52.496;13.482;2023-04-01T15:19:51;100166.31;;;8.11;93.77
53932;BME280;39844;52.496;13.482;2023-04-01T15:32:56;100170.72;;;7.99;97.13
53932;BME280;39844;52.496;13.482;2023-04-01T15:41:23;100178.59;;;7.85;97.57
53932;BME280;39844;52.496;13.482;2023-04-01T15:43:50;100192.50;;;7.86;98.09
53932;BME280;39844;52.496;13.482;2023-04-01T15:46:24;100190.78;;;7.85;96.93
53932;BME280;39844;52.496;13.482;2023-04-01T15:51:48;100206.44;;;7.79;95.33
53932;BME280;39844;52.496;13.482;2023-04-01T15:54:27;100213.44;;;7.80;97.04
53932;BME280;39844;52.496;13.482;2023-04-01T15:57:25;100212.53;;;7.87;97.49
53932;BME280;39844;52.496;13.482;2023-04-01T16:05:33;100219.53;;;7.71;95.13
53932;BME280;39844;52.496;13.482;2023-04-01T16:10:52;100228.25;;;7.64;96.15
53932;BME280;39844;52.496;13.482;2023-04-01T16:13:41;100238.69;;;7.61;97.00
53932;BME280;39844;52.496;13.482;2023-04-01T16:21:50;100258.69;;;7.51;96.43
53932;BME280;39844;52.496;13.482;2023-04-01T16:24:40;100256.06;;;7.42;97.15
53932;BME280;39844;52.496;13.482;2023-04-01T16:37:50;100283.03;;;7.23;97.22
53932;BME280;39844;52.496;13.482;2023-04-01T16:43:40;100290.81;;;7.11;96.40
53932;BME280;39844;52.496;13.482;2023-04-01T16:54:23;100309.03;;;6.96;97.27
53932;BME280;39844;52.496;13.482;2023-04-01T16:57:02;100314.22;;;6.90;96.40
53932;BME280;39844;52.496;13.482;2023-04-01T17:04:47;100329.78;;;6.72;95.72
53932;BME280;39844;52.496;13.482;2023-04-01T17:10:00;100338.47;;;6.69;97.19
53932;BME280;39844;52.496;13.482;2023-04-01T17:15:24;100349.75;;;6.65;96.90
53932;BME280;39844;52.496;13.482;2023-04-01T17:18:14;100355.78;;;6.60;96.50
53932;BME280;39844;52.496;13.482;2023-04-01T17:21:10;100362.72;;;6.56;97.16
53932;BME280;39844;52.496;13.482;2023-04-01T17:32:20;100375.66;;;6.38;97.34
53932;BME280;39844;52.496;13.482;2023-04-01T17:35:06;100393.00;;;6.36;97.56
53932;BME280;39844;52.496;13.482;2023-04-01T17:37:50;100394.72;;;6.34;97.50
53932;BME280;39844;52.496;13.482;2023-04-01T17:41:01;100391.22;;;6.29;97.29
53932;BME280;39844;52.496;13.482;2023-04-01T17:46:55;100411.16;;;6.25;98.38
53932;BME280;39844;52.496;13.482;2023-04-01T17:49:39;100415.47;;;6.22;98.32
53932;BME280;39844;52.496;13.482;2023-04-01T18:08:25;100451.66;;;5.93;98.81
53932;BME280;39844;52.496;13.482;2023-04-01T18:18:46;100469.84;;;5.87;100.00
53932;BME280;39844;52.496;13.482;2023-04-01T18:21:56;100469.81;;;5.86;100.00
53932;BME280;39844;52.496;13.482;2023-04-01T18:24:16;100472.47;;;5.87;100.00
53932;BME280;39844;52.496;13.482;2023-04-01T18:26:48;100478.44;;;5.83;99.50
53932;BME280;39844;52.496;13.482;2023-04-01T18:29:34;100485.38;;;5.81;100.00
53932;BME280;39844;52.496;13.482;2023-04-01T18:32:34;100487.97;;;5.80;100.00
53932;BME280;39844;52.496;13.482;2023-04-01T18:37:43;100508.75;;;5.78;100.00
53932;BME280;39844;52.496;13.482;2023-04-01T18:45:58;100533.03;;;5.75;100.00
53932;BME280;39844;52.496;13.482;2023-04-01T18:48:57;100533.00;;;5.72;99.33
53932;BME280;39844;52.496;13.482;2023-04-01T18:54:26;100538.16;;;5.66;98.34
53932;BME280;39844;52.496;13.482;2023-04-01T18:57:22;100549.41;;;5.67;99.28
53932;BME280;39844;52.496;13.482;2023-04-01T18:59:53;100552.00;;;5.67;98.43
53932;BME280;39844;52.496;13.482;2023-04-01T19:02:25;100554.59;;;5.65;98.75
53932;BME280;39844;52.496;13.482;2023-04-01T19:05:00;100560.66;;;5.64;98.73
53932;BME280;39844;52.496;13.482;2023-04-01T19:10:13;100566.69;;;5.60;98.64
53932;BME280;39844;52.496;13.482;2023-04-01T19:15:33;100579.63;;;5.54;98.22
53932;BME280;39844;52.496;13.482;2023-04-01T19:20:53;100571.84;;;5.56;99.12
53932;BME280;39844;52.496;13.482;2023-04-01T19:23:55;100579.59;;;5.53;98.54
53932;BME280;39844;52.496;13.482;2023-04-01T19:26:27;100589.13;;;5.51;99.04
53932;BME280;39844;52.496;13.482;2023-04-01T19:31:37;100585.53;;;5.43;99.21
53932;BME280;39844;52.496;13.482;2023-04-01T19:36:50;100601.09;;;5.40;98.95
53932;BME280;39844;52.496;13.482;2023-04-01T19:39:30;100602.81;;;5.36;99.72
53932;BME280;39844;52.496;13.482;2023-04-01T19:42:41;100605.38;;;5.35;99.53
53932;BME280;39844;52.496;13.482;2023-04-01T19:45:26;100618.31;;;5.32;99.24
53932;BME280;39844;52.496;13.482;2023-04-01T19:51:07;100626.88;;;5.23;98.52
53932;BME280;39844;52.496;13.482;2023-04-01T19:56:22;100630.31;;;5.21;99.27
53932;BME280;39844;52.496;13.482;2023-04-01T19:59:00;100633.75;;;5.18;99.08
53932;BME280;39844;52.496;13.482;2023-04-01T20:04:22;100643.25;;;5.18;99.33
53932;BME280;39844;52.496;13.482;2023-04-01T20:07:07;100664.06;;;5.18;99.87
53932;BME280;39844;52.496;13.482;2023-04-01T20:15:29;100669.09;;;5.08;97.63
53932;BME280;39844;52.496;13.482;2023-04-01T20:17:58;100675.19;;;5.07;98.26
53932;BME280;39844;52.496;13.482;2023-04-01T20:20:27;100680.38;;;5.07;98.76
53932;BME280;39844;52.496;13.482;2023-04-01T20:23:26;100680.31;;;5.04;97.77
53932;BME280;39844;52.496;13.482;2023-04-01T20:26:02;100690.78;;;5.07;98.72
53932;BME280;39844;52.496;13.482;2023-04-01T20:28:37;100695.22;;;5.13;99.29
53932;BME280;39844;52.496;13.482;2023-04-01T20:31:17;100702.97;;;5.11;98.78
53932;BME280;39844;52.496;13.482;2023-04-01T20:36:52;100708.09;;;5.05;97.20
53932;BME280;39844;52.496;13.482;2023-04-01T20:47:53;100733.69;;;4.83;97.67
53932;BME280;39844;52.496;13.482;2023-04-01T20:50:29;100733.56;;;4.78;97.35
53932;BME280;39844;52.496;13.482;2023-04-01T20:53:33;100732.59;;;4.72;97.32
53932;BME280;39844;52.496;13.482;2023-04-01T20:58:56;100734.09;;;4.61;96.37
53932;BME280;39844;52.496;13.482;2023-04-01T21:23:58;100788.06;;;4.32;94.83
53932;BME280;39844;52.496;13.482;2023-04-01T21:41:17;100824.38;;;4.29;93.57
53932;BME280;39844;52.496;13.482;2023-04-01T22:03:38;100852.78;;;4.23;92.85
53932;BME280;39844;52.496;13.482;2023-04-01T22:06:37;100855.38;;;4.23;93.10
53932;BME280;39844;52.496;13.482;2023-04-01T22:09:29;100857.06;;;4.19;91.54
53932;BME280;39844;52.496;13.482;2023-04-01T22:17:28;100869.88;;;4.13;90.88
53932;BME280;39844;52.496;13.482;2023-04-01T22:20:31;100869.00;;;4.13;90.68
53932;BME280;39844;52.496;13.482;2023-04-01T22:23:26;100884.59;;;4.13;90.84
53932;BME280;39844;52.496;13.482;2023-04-01T22:32:11;100886.28;;;4.11;91.11
53932;BME280;39844;52.496;13.482;2023-04-01T22:37:52;100894.97;;;4.13;90.08